Time;durP1;ratioP1;P1;durP2;ratioP2;P2;SDS_P1;SDS_P2;PMS_P1;PMS_P2;Temp;Humidity;BMP_temperature;BMP_pressure;BME280_temperature;BME280_humidity;BME280_pressure;Samples;Min_cycle;Max_cycle;Signal;HPM_P1;HPM_P2
2021/10/28 00:12:11;;;;;;;5.03;4.13;;;9.90;99.90;;;;;;5018642;28;20117;-80
2021/10/28 00:15:04;;;;;;;8.70;5.65;;;9.80;99.90;;;;;;4940727;28;20495;-79
2021/10/28 00:20:07;;;;;;;14.35;6.20;;;9.80;99.90;;;;;;4985758;28;20174;-80
2021/10/28 00:22:33;;;;;;;10.60;6.40;;;9.80;99.90;;;;;;5057663;28;20045;-79
2021/10/28 00:24:59;;;;;;;6.53;4.72;;;9.80;99.90;;;;;;5033531;28;20046;-78
2021/10/28 00:27:25;;;;;;;4.85;4.03;;;9.80;99.90;;;;;;4998754;28;20056;-81
2021/10/28 00:29:52;;;;;;;;;;;9.80;99.90;;;;;;5021619;28;20127;-78
2021/10/28 00:32:18;;;;;;;5.30;4.03;;;9.70;99.90;;;;;;5028888;28;20059;-82
2021/10/28 00:34:43;;;;;;;10.65;4.75;;;9.70;99.90;;;;;;5031958;28;20461;-80
2021/10/28 00:37:11;;;;;;;14.85;8.75;;;9.70;99.90;;;;;;5011664;28;20034;-78
2021/10/28 00:39:37;;;;;;;14.68;6.60;;;9.70;99.90;;;;;;5021073;28;20048;-78
2021/10/28 00:42:04;;;;;;;5.13;4.05;;;9.70;99.90;;;;;;5022566;28;20038;-81
2021/10/28 00:44:30;;;;;;;9.18;6.75;;;9.70;99.90;;;;;;5015010;28;20037;-81
2021/10/28 00:46:56;;;;;;;9.73;5.22;;;9.70;99.90;;;;;;5045971;28;20041;-80
2021/10/28 00:49:22;;;;;;;11.93;6.25;;;9.70;99.90;;;;;;5048005;28;20049;-80
2021/10/28 00:51:48;;;;;;;11.90;6.70;;;9.70;99.90;;;;;;5012875;28;20046;-80
2021/10/28 00:54:17;;;;;;;12.10;6.10;;;9.70;99.90;;;;;;5042035;28;20045;-79
2021/10/28 00:56:44;;;;;;;14.18;6.28;;;9.60;99.90;;;;;;5028987;28;20100;-77
2021/10/28 00:59:11;;;;;;;12.80;6.60;;;9.60;99.90;;;;;;5044787;28;20038;-83
2021/10/28 01:01:37;;;;;;;12.93;6.93;;;9.60;99.90;;;;;;5012872;28;20042;-81
2021/10/28 01:04:04;;;;;;;6.40;4.13;;;9.60;99.90;;;;;;5046384;28;20043;-78
2021/10/28 01:06:30;;;;;;;9.85;5.53;;;9.70;99.90;;;;;;5037499;28;20073;-80
2021/10/28 01:08:57;;;;;;;10.40;5.70;;;9.70;99.90;;;;;;5063128;28;20075;-80
2021/10/28 01:11:25;;;;;;;15.98;6.60;;;9.60;99.90;;;;;;5010813;28;20337;-79
2021/10/28 01:13:51;;;;;;;9.70;8.05;;;9.50;99.90;;;;;;5026493;28;20049;-78
2021/10/28 01:16:19;;;;;;;7.20;4.22;;;9.50;99.90;;;;;;5036120;28;20053;-79
2021/10/28 01:18:46;;;;;;;9.45;5.28;;;9.50;99.90;;;;;;5044122;28;20049;-79
2021/10/28 01:21:12;;;;;;;;;;;9.60;99.90;;;;;;5036108;28;20060;-79
2021/10/28 01:23:41;;;;;;;11.93;6.15;;;9.60;99.90;;;;;;5015511;28;19921;-82
2021/10/28 01:26:10;;;;;;;5.35;4.38;;;9.60;99.90;;;;;;5029082;28;20535;-80
2021/10/28 01:28:39;;;;;;;6.57;5.40;;;9.60;99.90;;;;;;5018971;28;20581;-81
2021/10/28 01:31:08;;;;;;;15.95;6.18;;;9.50;99.90;;;;;;5042054;28;20103;-81
2021/10/28 01:33:35;;;;;;;8.55;4.88;;;9.50;99.90;;;;;;5033822;28;20076;-78
2021/10/28 01:36:00;;;;;;;12.90;5.88;;;9.50;99.90;;;;;;5003831;28;20042;-80
2021/10/28 01:38:26;;;;;;;7.22;4.97;;;9.50;99.90;;;;;;5031439;28;20088;-79
2021/10/28 01:40:58;;;;;;;6.82;5.32;;;9.50;99.90;;;;;;4994930;28;20034;-80
2021/10/28 01:43:25;;;;;;;11.55;5.55;;;9.50;99.90;;;;;;5039300;28;20042;-81
2021/10/28 01:45:51;;;;;;;6.95;5.75;;;9.40;99.90;;;;;;5020246;28;20061;-82
2021/10/28 01:48:18;;;;;;;6.03;5.13;;;9.50;99.90;;;;;;5041033;28;20073;-80
2021/10/28 01:50:45;;;;;;;10.98;4.82;;;9.40;99.90;;;;;;5015481;28;20061;-78
2021/10/28 01:53:22;;;;;;;5.63;3.67;;;9.40;99.90;;;;;;5020924;28;20100;-79
2021/10/28 01:55:48;;;;;;;4.40;4.00;;;9.40;99.90;;;;;;5057691;28;20574;-80
2021/10/28 01:58:17;;;;;;;7.30;4.55;;;9.40;99.90;;;;;;5020130;28;20042;-81
2021/10/28 02:00:44;;;;;;;8.40;5.30;;;9.40;99.90;;;;;;5058526;28;20472;-79
2021/10/28 02:03:10;;;;;;;9.57;5.68;;;9.40;99.90;;;;;;4994740;28;20030;-78
2021/10/28 02:05:36;;;;;;;9.27;5.93;;;9.40;99.90;;;;;;5035295;28;20124;-79
2021/10/28 02:08:02;;;;;;;10.07;5.65;;;9.40;99.90;;;;;;5042453;28;20041;-80
2021/10/28 02:10:28;;;;;;;11.98;5.85;;;9.40;99.90;;;;;;5034286;28;20437;-81
2021/10/28 02:12:56;;;;;;;7.80;5.03;;;9.30;99.90;;;;;;5026186;28;20133;-78
2021/10/28 02:15:24;;;;;;;16.00;4.90;;;9.30;99.90;;;;;;5045110;28;20096;-79
2021/10/28 02:17:49;;;;;;;9.25;5.95;;;9.30;99.90;;;;;;5012134;28;20430;-81
2021/10/28 02:20:17;;;;;;;8.98;4.80;;;9.20;99.90;;;;;;5017842;28;20049;-80
2021/10/28 02:22:44;;;;;;;10.77;5.25;;;9.20;99.90;;;;;;5027818;28;20436;-79
2021/10/28 02:25:11;;;;;;;5.53;4.22;;;9.20;99.90;;;;;;5014294;28;20475;-78
2021/10/28 02:27:38;;;;;;;8.05;4.82;;;9.20;99.90;;;;;;5017479;28;20415;-78
2021/10/28 02:30:07;;;;;;;10.18;5.10;;;9.20;99.90;;;;;;4999900;28;20415;-80
2021/10/28 02:32:33;;;;;;;11.30;5.80;;;9.20;99.90;;;;;;5013205;28;20069;-81
2021/10/28 02:35:00;;;;;;;9.60;5.13;;;9.20;99.90;;;;;;5011756;28;20060;-78
2021/10/28 02:37:27;;;;;;;6.22;4.68;;;9.20;99.90;;;;;;5017398;28;20057;-80
2021/10/28 02:39:53;;;;;;;14.65;6.35;;;9.20;99.90;;;;;;5022162;28;20034;-78
2021/10/28 02:42:18;;;;;;;8.98;6.32;;;9.20;99.90;;;;;;5022547;28;20038;-79
2021/10/28 02:44:44;;;;;;;12.52;5.90;;;9.70;99.90;;;;;;5029557;28;20037;-79
2021/10/28 02:47:10;;;;;;;11.32;7.22;;;9.20;99.90;;;;;;5056873;28;20419;-79
2021/10/28 02:49:36;;;;;;;;;;;9.20;99.90;;;;;;5027153;28;20397;-78
2021/10/28 02:52:02;;;;;;;6.53;5.15;;;9.30;99.90;;;;;;5021150;28;19918;-78
2021/10/28 02:54:29;;;;;;;14.32;5.10;;;9.30;99.90;;;;;;5023870;28;20042;-78
2021/10/28 02:56:56;;;;;;;10.73;5.45;;;9.30;99.90;;;;;;5044603;28;20129;-79
2021/10/28 02:59:21;;;;;;;;;;;9.30;99.90;;;;;;5029270;28;20069;-79
2021/10/28 03:01:49;;;;;;;12.48;5.85;;;9.20;99.90;;;;;;5030823;28;20436;-78
2021/10/28 03:04:17;;;;;;;10.35;5.45;;;9.20;99.90;;;;;;5022846;28;20093;-79
2021/10/28 03:06:44;;;;;;;12.50;5.28;;;9.20;99.90;;;;;;5021568;28;20473;-77
2021/10/28 03:09:19;;;;;;;5.18;4.32;;;9.20;99.90;;;;;;5049133;28;20521;-78
2021/10/28 03:11:48;;;;;;;8.10;4.93;;;9.20;99.90;;;;;;5040428;28;20034;-81
2021/10/28 03:14:17;;;;;;;11.75;5.65;;;9.10;99.90;;;;;;5024889;28;20052;-82
2021/10/28 03:27:24;;;;;;;10.68;5.55;;;9.10;99.90;;;;;;5032095;28;20126;-79
2021/10/28 03:29:49;;;;;;;11.05;5.72;;;9.10;99.90;;;;;;5007586;28;20076;-81
2021/10/28 03:32:15;;;;;;;12.27;6.15;;;9.10;99.90;;;;;;5047250;28;20050;-81
2021/10/28 03:34:42;;;;;;;5.53;4.47;;;9.20;99.90;;;;;;5043883;28;20057;-80
2021/10/28 03:48:29;;;;;;;9.05;5.30;;;9.30;99.90;;;;;;5028290;28;20400;-79
2021/10/28 04:17:04;;;;;;;5.28;3.70;;;8.90;99.90;;;;;;5025821;28;20463;-79
2021/10/28 04:19:51;;;;;;;11.43;5.03;;;9.00;99.90;;;;;;5056234;28;20049;-79
2021/10/28 04:30:18;;;;;;;5.30;3.97;;;8.90;99.90;;;;;;5054475;28;20558;-78
2021/10/28 04:32:44;;;;;;;6.00;4.25;;;8.90;99.90;;;;;;5053094;28;20058;-77
2021/10/28 04:35:10;;;;;;;9.60;4.68;;;8.90;99.90;;;;;;5034280;28;20050;-79
2021/10/28 04:37:37;;;;;;;5.65;4.45;;;8.90;99.90;;;;;;5026911;28;20371;-78
2021/10/28 04:40:04;;;;;;;5.53;4.13;;;8.90;99.90;;;;;;5053964;28;20099;-79
2021/10/28 04:42:34;;;;;;;10.68;4.38;;;8.80;99.90;;;;;;5018503;28;20096;-80
2021/10/28 04:44:59;;;;;;;6.35;4.68;;;8.80;99.90;;;;;;5040408;28;20033;-80
2021/10/28 04:47:25;;;;;;;6.55;3.45;;;8.80;99.90;;;;;;5025111;28;20034;-79
2021/10/28 04:49:51;;;;;;;4.43;3.67;;;8.80;99.90;;;;;;5015105;28;20550;-80
2021/10/28 04:52:18;;;;;;;6.88;3.45;;;8.80;99.90;;;;;;5018804;28;20049;-79
2021/10/28 04:54:44;;;;;;;6.72;5.05;;;8.80;99.90;;;;;;5030300;28;20109;-78
2021/10/28 04:57:09;;;;;;;5.68;4.68;;;8.80;99.90;;;;;;5025081;28;20049;-79
2021/10/28 04:59:35;;;;;;;7.70;3.88;;;8.80;99.90;;;;;;5020082;28;20046;-78
2021/10/28 05:02:01;;;;;;;3.88;3.45;;;8.80;99.90;;;;;;5017537;28;20452;-78
2021/10/28 05:04:26;;;;;;;4.47;4.07;;;8.80;99.90;;;;;;5027656;28;20518;-77
2021/10/28 05:06:52;;;;;;;6.47;4.03;;;8.80;99.90;;;;;;5037308;28;20036;-78
2021/10/28 05:09:24;;;;;;;6.70;4.38;;;8.80;99.90;;;;;;5018730;28;20396;-78
2021/10/28 05:11:49;;;;;;;5.63;3.60;;;8.80;99.90;;;;;;5015240;28;20041;-79
2021/10/28 05:14:15;;;;;;;5.43;3.70;;;8.80;99.90;;;;;;5022175;28;20037;-79
2021/10/28 05:16:41;;;;;;;10.20;5.32;;;8.80;99.90;;;;;;5058150;28;20486;-80
2021/10/28 05:19:07;;;;;;;;;;;8.80;99.90;;;;;;5019715;28;20046;-79
2021/10/28 05:21:33;;;;;;;9.45;4.90;;;8.80;99.90;;;;;;5018551;28;20302;-79
2021/10/28 05:23:58;;;;;;;6.28;4.80;;;8.80;99.90;;;;;;5021975;28;20468;-79
2021/10/28 05:26:24;;;;;;;6.30;4.07;;;8.80;99.90;;;;;;5012665;28;20049;-79
2021/10/28 05:28:50;;;;;;;9.75;4.57;;;8.80;99.90;;;;;;5016596;28;20038;-79
2021/10/28 05:31:16;;;;;;;6.45;4.22;;;8.80;99.90;;;;;;4990667;28;20076;-80
2021/10/28 05:33:42;;;;;;;4.25;2.90;;;8.80;99.90;;;;;;5046001;28;20053;-78
2021/10/28 05:36:08;;;;;;;5.70;4.70;;;8.90;99.90;;;;;;5017353;28;20049;-78
2021/10/28 05:38:34;;;;;;;;;;;8.80;99.90;;;;;;5017537;28;20034;-79
2021/10/28 05:41:00;;;;;;;6.13;4.40;;;8.70;99.90;;;;;;5024216;28;19917;-78
2021/10/28 05:43:32;;;;;;;5.95;5.30;;;8.80;99.90;;;;;;5027720;28;20052;-80
2021/10/28 05:45:58;;;;;;;5.82;3.97;;;8.70;99.90;;;;;;5028293;28;20046;-79
2021/10/28 05:48:24;;;;;;;4.95;4.22;;;8.70;99.90;;;;;;5033541;28;20459;-80
2021/10/28 05:50:50;;;;;;;7.47;3.80;;;8.70;99.90;;;;;;5015080;28;20053;-81
2021/10/28 05:53:17;;;;;;;5.00;2.78;;;8.60;99.90;;;;;;5011952;28;20072;-80
2021/10/28 05:55:42;;;;;;;6.45;4.25;;;8.60;99.90;;;;;;4995866;28;20064;-81
2021/10/28 05:58:08;;;;;;;4.95;3.45;;;8.60;99.90;;;;;;5044928;28;20042;-80
2021/10/28 06:00:34;;;;;;;7.63;3.58;;;8.60;99.90;;;;;;5046656;28;20087;-80
2021/10/28 06:03:00;;;;;;;5.05;3.38;;;8.50;99.90;;;;;;5018022;28;20033;-80
2021/10/28 06:05:26;;;;;;;4.13;3.38;;;8.40;99.90;;;;;;5026682;28;20118;-79
2021/10/28 06:07:51;;;;;;;6.10;2.17;;;8.60;99.90;;;;;;5025724;28;20515;-80
2021/10/28 06:10:19;;;;;;;6.47;4.40;;;8.50;99.90;;;;;;5039297;28;20139;-80
2021/10/28 06:12:52;;;;;;;6.45;3.28;;;8.50;99.90;;;;;;5041398;28;20049;-80
2021/10/28 06:15:19;;;;;;;4.45;3.13;;;8.40;99.90;;;;;;5048066;28;20050;-81
2021/10/28 06:17:55;;;;;;;6.30;3.28;;;8.40;99.90;;;;;;5025735;28;20404;-80
2021/10/28 06:20:22;;;;;;;5.38;3.83;;;8.30;99.90;;;;;;5027252;28;20443;-80
2021/10/28 06:22:49;;;;;;;4.63;3.97;;;8.30;99.90;;;;;;5062864;28;20037;-80
2021/10/28 06:25:16;;;;;;;5.82;3.30;;;8.00;99.90;;;;;;5017921;28;20056;-80
2021/10/28 06:27:42;;;;;;;5.90;4.30;;;8.40;99.90;;;;;;5056538;28;20052;-80
2021/10/28 06:30:09;;;;;;;6.35;3.45;;;8.30;99.90;;;;;;5014619;28;20060;-80
2021/10/28 06:32:36;;;;;;;3.28;2.97;;;8.30;99.90;;;;;;4990770;28;20057;-79
2021/10/28 06:35:04;;;;;;;6.03;3.10;;;8.30;99.90;;;;;;5017681;28;20153;-80
2021/10/28 06:37:29;;;;;;;8.30;4.35;;;8.30;99.90;;;;;;5025792;28;20044;-80
2021/10/28 06:39:55;;;;;;;8.32;5.00;;;8.30;99.90;;;;;;5020527;28;20556;-80
2021/10/28 06:42:21;;;;;;;7.55;4.10;;;8.30;99.90;;;;;;5030318;28;20038;-80
2021/10/28 06:44:47;;;;;;;6.70;4.13;;;8.30;99.90;;;;;;5029746;28;20475;-79
2021/10/28 06:47:12;;;;;;;7.18;3.40;;;8.30;99.90;;;;;;5022811;28;20413;-78
2021/10/28 06:49:42;;;;;;;6.47;3.92;;;8.30;99.90;;;;;;5028268;28;20107;-80
2021/10/28 06:52:11;;;;;;;5.80;4.00;;;8.30;99.90;;;;;;5001517;28;20045;-80
2021/10/28 06:54:40;;;;;;;4.00;3.60;;;8.30;99.90;;;;;;5033589;28;20053;-78
2021/10/28 07:02:55;;;;;;;7.80;3.83;;;8.30;99.90;;;;;;5001491;28;20057;-80
2021/10/28 07:05:20;;;;;;;8.32;3.95;;;8.30;99.90;;;;;;4965543;28;20755;-79
2021/10/28 07:07:46;;;;;;;7.25;4.03;;;8.30;99.90;;;;;;4992682;28;20046;-80
2021/10/28 07:10:15;;;;;;;9.80;3.05;;;8.30;99.90;;;;;;5026306;28;20096;-82
2021/10/28 07:15:21;;;;;;;7.07;4.10;;;8.30;99.90;;;;;;5018275;28;20053;-81
2021/10/28 07:18:03;;;;;;;5.50;4.03;;;8.40;99.90;;;;;;5015924;28;20045;-81
2021/10/28 07:20:50;;;;;;;4.55;3.90;;;8.40;99.90;;;;;;5050190;28;20065;-80
2021/10/28 07:35:56;;;;;;;6.82;5.63;;;8.60;99.90;;;;;;5012262;28;20057;-79
2021/10/28 08:16:26;;;;;;;10.23;5.50;;;9.40;99.90;;;;;;5028200;28;20029;-81
2021/10/28 08:29:45;;;;;;;10.27;4.47;;;9.80;99.90;;;;;;5052208;28;20136;-82
2021/10/28 08:32:11;;;;;;;8.98;4.10;;;9.90;99.90;;;;;;5045101;28;20050;-80
2021/10/28 08:34:41;;;;;;;9.35;4.82;;;10.00;99.90;;;;;;5012101;28;20124;-79
2021/10/28 08:37:16;;;;;;;8.32;4.57;;;10.00;99.90;;;;;;4984413;28;20042;-83
2021/10/28 08:39:52;;;;;;;6.43;3.85;;;10.10;99.90;;;;;;5040223;28;20069;-80
2021/10/28 08:42:22;;;;;;;6.05;4.68;;;10.20;99.90;;;;;;5043377;28;20042;-80
2021/10/28 08:44:53;;;;;;;3.58;3.22;;;10.30;99.90;;;;;;5055834;28;20054;-80
2021/10/28 08:47:21;;;;;;;13.18;4.07;;;10.40;99.90;;;;;;5005417;28;20038;-81
2021/10/28 08:52:56;;;;;;;5.43;3.03;;;10.60;99.90;;;;;;5007576;28;20046;-81
2021/10/28 08:55:28;;;;;;;7.95;4.78;;;10.90;99.90;;;;;;5040675;28;20443;-79
2021/10/28 09:29:06;;;;;;;5.78;3.28;;;11.80;99.90;;;;;;5019696;28;20049;-78
2021/10/28 09:31:36;;;;;;;4.70;2.67;;;11.80;99.90;;;;;;5035149;28;20053;-81
2021/10/28 09:34:14;;;;;;;5.25;3.38;;;11.90;99.90;;;;;;5009399;28;20058;-80
2021/10/28 09:45:31;;;;;;;5.25;3.85;;;12.30;99.90;;;;;;5028481;28;20076;-82
2021/10/28 09:50:37;;;;;;;10.82;3.42;;;12.40;99.90;;;;;;4997414;28;20399;-80
2021/10/28 09:53:11;;;;;;;7.10;3.72;;;12.50;99.90;;;;;;5001215;28;20073;-80
2021/10/28 09:58:43;;;;;;;5.63;2.80;;;12.60;99.90;;;;;;5046696;28;20106;-81
2021/10/28 10:01:46;;;;;;;4.88;2.70;;;12.70;99.90;;;;;;4986776;28;20090;-79
2021/10/28 10:04:14;;;;;;;5.60;2.63;;;12.80;99.90;;;;;;5027354;28;20042;-80
2021/10/28 10:06:42;;;;;;;4.03;2.83;;;12.90;99.90;;;;;;5005665;28;20104;-80
2021/10/28 10:09:08;;;;;;;4.60;3.08;;;12.90;99.90;;;;;;5022457;28;20052;-79
2021/10/28 10:11:37;;;;;;;9.45;2.42;;;13.00;99.90;;;;;;5009052;28;20045;-79
2021/10/28 10:14:03;;;;;;;4.60;2.80;;;13.00;99.90;;;;;;5015601;28;20050;-79
2021/10/28 10:16:29;;;;;;;;;;;13.10;99.90;;;;;;4997362;28;20061;-80
2021/10/28 10:18:55;;;;;;;2.78;2.55;;;13.10;99.90;;;;;;5008007;28;19963;-78
2021/10/28 10:24:21;;;;;;;6.93;4.15;;;13.20;99.90;;;;;;5024334;28;20092;-78
2021/10/28 10:28:04;;;;;;;4.22;2.58;;;13.30;99.90;;;;;;5003810;28;20040;-80
2021/10/28 12:45:12;;;;;;;2.10;1.42;;;15.70;99.90;;;;;;5048089;28;20073;-83
2021/10/28 12:48:06;;;;;;;2.97;1.75;;;15.80;99.90;;;;;;5009864;28;20491;-78
2021/10/28 13:27:55;;;;;;;4.30;1.80;;;16.20;99.90;;;;;;5029187;28;20128;-81
2021/10/28 13:56:34;;;;;;;2.15;1.50;;;20.60;99.90;;;;;;5003192;28;20041;-79
2021/10/28 14:29:44;;;;;;;2.22;1.30;;;21.60;99.90;;;;;;5025570;28;20046;-79
2021/10/28 15:29:55;;;;;;;6.32;2.17;;;16.60;99.90;;;;;;5021185;28;20430;-81
2021/10/28 15:37:10;;;;;;;2.53;1.95;;;15.30;99.90;;;;;;5021668;28;20057;-79
2021/10/28 15:40:05;;;;;;;3.95;2.13;;;15.10;99.90;;;;;;5027427;28;20045;-81
2021/10/28 16:21:46;;;;;;;5.13;2.28;;;13.70;99.90;;;;;;5011431;28;20046;-82
2021/10/28 16:24:00;;;;;;;6.25;2.55;;;12.80;99.90;;;;;;5015644;28;20046;-80
2021/10/28 16:26:31;;;;;;;4.60;3.08;;;12.80;99.90;;;;;;5028422;28;20057;-79
2021/10/28 16:28:57;;;;;;;2.90;2.03;;;12.80;99.90;;;;;;5016179;28;20045;-80
2021/10/28 16:31:23;;;;;;;4.13;2.50;;;12.70;99.90;;;;;;5026024;28;20064;-81
2021/10/28 16:33:50;;;;;;;3.80;2.83;;;12.70;99.90;;;;;;5023008;28;20089;-82
2021/10/28 16:36:15;;;;;;;3.67;2.67;;;12.60;99.90;;;;;;5029595;28;20037;-79
2021/10/28 16:38:42;;;;;;;3.75;2.65;;;12.50;99.90;;;;;;5047331;28;20495;-79
2021/10/28 16:41:08;;;;;;;5.40;3.20;;;12.50;99.90;;;;;;5013608;28;20057;-78
2021/10/28 16:43:34;;;;;;;4.90;2.42;;;12.40;99.90;;;;;;4993812;28;20360;-80
2021/10/28 16:46:00;;;;;;;;;;;12.30;99.90;;;;;;5010119;28;20052;-78
2021/10/28 16:48:25;;;;;;;3.35;2.65;;;12.30;99.90;;;;;;5005559;28;19991;-80
2021/10/28 16:50:51;;;;;;;11.65;2.20;;;12.20;99.90;;;;;;5025873;28;20049;-82
2021/10/28 16:53:17;;;;;;;4.15;2.55;;;12.10;99.90;;;;;;5009657;28;20073;-81
2021/10/28 16:55:43;;;;;;;3.67;2.72;;;12.10;99.90;;;;;;5014520;28;20125;-81
2021/10/28 16:58:10;;;;;;;3.55;2.83;;;12.00;99.90;;;;;;5020304;28;20041;-79
2021/10/28 17:00:36;;;;;;;4.30;2.33;;;12.00;99.90;;;;;;5011222;28;20059;-79
2021/10/28 17:03:03;;;;;;;2.20;2.00;;;11.90;99.90;;;;;;5019302;28;20038;-78
2021/10/28 17:05:30;;;;;;;4.63;1.83;;;11.80;99.90;;;;;;5032789;28;20038;-81
2021/10/28 17:07:55;;;;;;;2.50;1.77;;;11.80;99.90;;;;;;5032419;28;20042;-81
2021/10/28 17:10:21;;;;;;;6.95;2.42;;;11.70;99.90;;;;;;5021451;28;20480;-81
2021/10/28 17:12:47;;;;;;;3.72;2.95;;;11.60;99.90;;;;;;5006655;28;20046;-80
2021/10/28 17:15:13;;;;;;;3.88;2.58;;;11.60;99.90;;;;;;5039998;28;20041;-83
2021/10/28 17:17:39;;;;;;;4.40;2.58;;;11.50;99.90;;;;;;5035708;28;20049;-82
2021/10/28 17:20:06;;;;;;;5.07;2.95;;;11.50;99.90;;;;;;5048397;28;20038;-82
2021/10/28 17:22:37;;;;;;;6.57;4.30;;;11.50;99.90;;;;;;5018228;28;20108;-80
2021/10/28 17:25:05;;;;;;;3.55;2.65;;;11.40;99.90;;;;;;5023288;28;20041;-79
2021/10/28 17:27:32;;;;;;;5.30;2.15;;;11.40;99.90;;;;;;5011787;28;20136;-80
2021/10/28 17:29:59;;;;;;;3.17;2.28;;;11.30;99.90;;;;;;4997435;28;20491;-83
2021/10/28 17:32:26;;;;;;;2.97;2.65;;;11.30;99.90;;;;;;5040430;28;20408;-80
2021/10/28 17:34:51;;;;;;;3.95;3.05;;;11.30;99.90;;;;;;5011886;28;20054;-80
2021/10/28 17:37:17;;;;;;;4.63;3.03;;;11.30;99.90;;;;;;5020621;28;20052;-78
2021/10/28 17:39:44;;;;;;;2.67;2.15;;;11.30;99.90;;;;;;5021776;28;20491;-78
2021/10/28 17:42:10;;;;;;;4.65;3.17;;;11.30;99.90;;;;;;5018492;28;20049;-79
2021/10/28 17:44:42;;;;;;;3.80;2.72;;;11.20;99.90;;;;;;5005621;28;20046;-82
2021/10/28 17:47:08;;;;;;;2.67;2.40;;;11.20;99.90;;;;;;5022622;28;20077;-83
2021/10/28 17:49:36;;;;;;;3.63;2.70;;;11.20;99.90;;;;;;5011436;28;20034;-80
2021/10/28 17:52:06;;;;;;;2.28;1.58;;;11.10;99.90;;;;;;5049908;28;20045;-78
2021/10/28 17:54:35;;;;;;;6.38;3.22;;;11.10;99.90;;;;;;5011415;28;20384;-82
2021/10/28 17:57:01;;;;;;;7.45;3.20;;;11.00;99.90;;;;;;5032506;28;20048;-79
2021/10/28 17:59:27;;;;;;;5.13;2.95;;;10.90;99.90;;;;;;5033750;28;20815;-82
2021/10/28 18:01:53;;;;;;;2.88;2.50;;;10.90;99.90;;;;;;5028210;28;20084;-82
2021/10/28 18:04:19;;;;;;;2.97;2.50;;;10.90;99.90;;;;;;5027834;28;20045;-81
2021/10/28 18:06:47;;;;;;;5.53;3.40;;;10.80;99.90;;;;;;5037680;28;20128;-82
2021/10/28 18:09:13;;;;;;;3.05;2.25;;;10.80;99.90;;;;;;5003062;28;20438;-80
2021/10/28 18:11:39;;;;;;;2.92;2.22;;;10.80;99.90;;;;;;5015508;28;20049;-79
2021/10/28 18:14:11;;;;;;;5.10;2.97;;;10.90;99.90;;;;;;5020250;28;20041;-79
2021/10/28 18:16:37;;;;;;;4.75;2.70;;;11.00;99.90;;;;;;5036834;28;20739;-82
2021/10/28 18:19:04;;;;;;;;;;;11.00;99.90;;;;;;5036557;28;20083;-80
2021/10/28 18:21:30;;;;;;;3.15;2.55;;;11.10;99.90;;;;;;5027589;28;19917;-82
2021/10/28 18:23:57;;;;;;;8.10;3.53;;;11.10;99.90;;;;;;4996187;28;20046;-80
2021/10/28 18:26:25;;;;;;;5.78;3.13;;;11.20;99.90;;;;;;4995293;28;20491;-79
2021/10/28 18:28:53;;;;;;;5.43;3.42;;;11.30;99.90;;;;;;5029686;28;20064;-80
2021/10/28 18:31:19;;;;;;;3.55;2.58;;;11.40;99.90;;;;;;5028447;28;20042;-79
2021/10/28 18:33:45;;;;;;;;;;;11.50;99.90;;;;;;5016225;28;20068;-83
2021/10/28 18:36:12;;;;;;;5.38;3.53;;;11.60;99.90;;;;;;5037535;28;19921;-80
2021/10/28 18:38:41;;;;;;;3.72;2.50;;;11.60;99.90;;;;;;5024158;28;20033;-81
2021/10/28 18:41:07;;;;;;;3.08;2.38;;;11.70;99.90;;;;;;5032359;28;20113;-78
2021/10/28 18:43:33;;;;;;;4.50;3.13;;;11.70;99.90;;;;;;5022048;28;20037;-81
2021/10/28 18:45:58;;;;;;;5.78;2.63;;;11.60;99.90;;;;;;5014321;28;20056;-78
2021/10/28 18:48:25;;;;;;;2.60;1.95;;;11.60;99.90;;;;;;5031141;28;20091;-81
2021/10/28 18:50:52;;;;;;;4.38;1.98;;;11.60;99.90;;;;;;5024188;28;20052;-80
2021/10/28 18:53:18;;;;;;;10.73;4.75;;;11.60;99.90;;;;;;5010297;28;20046;-81
2021/10/28 18:55:44;;;;;;;4.45;3.35;;;11.60;99.90;;;;;;4986054;28;20049;-78
2021/10/28 18:58:10;;;;;;;4.47;2.97;;;11.60;99.90;;;;;;5038429;28;20106;-79
2021/10/28 19:00:36;;;;;;;6.25;2.63;;;11.50;99.90;;;;;;5001861;28;20120;-81
2021/10/28 19:03:02;;;;;;;5.95;2.85;;;11.50;99.90;;;;;;5044905;28;20038;-81
2021/10/28 19:05:29;;;;;;;;;;;11.50;99.90;;;;;;5020085;28;20042;-77
2021/10/28 19:07:55;;;;;;;4.45;3.45;;;11.30;99.90;;;;;;5036664;28;19921;-81
2021/10/28 19:10:22;;;;;;;;;;;11.30;99.90;;;;;;5016094;28;20099;-83
2021/10/28 19:12:48;;;;;;;6.23;3.30;;;11.20;99.90;;;;;;5043995;28;19960;-82
2021/10/28 19:15:15;;;;;;;2.95;2.67;;;11.10;99.90;;;;;;4994848;28;20335;-80
2021/10/28 19:17:45;;;;;;;3.60;2.92;;;11.00;99.90;;;;;;5017589;28;20038;-80
2021/10/28 19:20:11;;;;;;;3.63;2.55;;;11.00;99.90;;;;;;5033697;28;20038;-83
2021/10/28 19:22:37;;;;;;;6.90;3.58;;;10.90;99.90;;;;;;5017812;28;20048;-81
2021/10/28 19:25:04;;;;;;;10.18;3.47;;;10.80;99.90;;;;;;5011722;28;20127;-81
2021/10/28 19:27:30;;;;;;;5.93;3.50;;;10.70;99.90;;;;;;5022007;28;20496;-81
2021/10/28 19:30:14;;;;;;;2.85;2.03;;;10.60;99.90;;;;;;5011652;28;20116;-80
2021/10/28 19:32:39;;;;;;;7.35;4.10;;;10.50;99.90;;;;;;5036008;28;20050;-81
2021/10/28 19:35:06;;;;;;;4.07;3.03;;;10.50;99.90;;;;;;5011121;28;20514;-81
2021/10/28 19:38:28;;;;;;;4.05;3.30;;;10.40;99.90;;;;;;5007256;28;20045;-80
2021/10/28 19:40:44;;;;;;;3.85;3.15;;;10.40;99.90;;;;;;5008870;28;20399;-80
2021/10/28 19:48:22;;;;;;;3.78;3.03;;;10.60;99.90;;;;;;5008808;28;20141;-82
2021/10/28 19:50:48;;;;;;;4.22;3.53;;;10.60;99.90;;;;;;5022380;28;20077;-83
2021/10/28 19:53:15;;;;;;;8.10;4.03;;;10.60;99.90;;;;;;5015073;28;20042;-82
2021/10/28 19:55:42;;;;;;;4.30;3.13;;;10.60;99.90;;;;;;5009234;28;20046;-80
2021/10/28 19:58:12;;;;;;;7.95;4.00;;;10.60;99.90;;;;;;5000743;28;20443;-82
2021/10/28 20:01:26;;;;;;;3.47;3.15;;;10.50;99.90;;;;;;5017084;28;20046;-79
2021/10/28 20:03:43;;;;;;;7.63;3.75;;;10.50;99.90;;;;;;5008549;28;20109;-79
2021/10/28 20:06:14;;;;;;;8.65;2.60;;;10.50;99.90;;;;;;5014403;28;20408;-80
2021/10/28 20:14:25;;;;;;;4.15;2.90;;;10.50;99.90;;;;;;5047559;28;20049;-82
2021/10/28 20:22:25;;;;;;;5.93;3.75;;;10.50;99.90;;;;;;5013811;28;20073;-80
2021/10/28 20:24:52;;;;;;;4.07;2.65;;;10.60;99.90;;;;;;5014348;28;20085;-82
2021/10/28 20:27:18;;;;;;;3.72;2.83;;;10.60;99.90;;;;;;5037245;28;20072;-80
2021/10/28 20:29:44;;;;;;;6.53;4.28;;;10.50;99.90;;;;;;5013741;28;20073;-82
2021/10/28 20:32:10;;;;;;;4.80;4.25;;;10.60;99.90;;;;;;5011101;28;20553;-81
2021/10/28 20:34:51;;;;;;;8.00;4.90;;;10.60;99.90;;;;;;5020125;28;20050;-83
2021/10/28 20:37:19;;;;;;;9.00;4.20;;;10.60;99.90;;;;;;5020043;28;20045;-82
2021/10/28 20:39:46;;;;;;;7.72;3.72;;;10.60;99.90;;;;;;5002500;28;20180;-83
2021/10/28 20:42:16;;;;;;;5.20;3.05;;;10.60;99.90;;;;;;5034676;28;20176;-82
2021/10/28 20:44:45;;;;;;;6.00;3.17;;;10.60;99.90;;;;;;5052152;28;20494;-82
2021/10/28 20:47:11;;;;;;;4.78;3.72;;;10.60;99.90;;;;;;5050102;28;20134;-82
2021/10/28 20:49:37;;;;;;;7.28;4.53;;;10.70;99.90;;;;;;5015293;28;20143;-81
2021/10/28 20:52:04;;;;;;;5.10;3.53;;;10.70;99.90;;;;;;5044085;28;20041;-80
2021/10/28 20:54:30;;;;;;;7.10;4.72;;;10.70;99.90;;;;;;5006288;28;20044;-82
2021/10/28 20:57:00;;;;;;;;;;;10.80;99.90;;;;;;5032327;28;20037;-82
2021/10/28 20:59:26;;;;;;;7.50;4.70;;;10.80;99.90;;;;;;5032451;28;20352;-82
2021/10/28 21:01:51;;;;;;;4.00;2.88;;;10.80;99.90;;;;;;5009826;28;20081;-82
2021/10/28 21:04:17;;;;;;;6.22;4.18;;;10.80;99.90;;;;;;5025608;28;20050;-80
2021/10/28 21:06:43;;;;;;;10.00;5.18;;;10.80;99.90;;;;;;5022425;28;20503;-82
2021/10/28 21:09:09;;;;;;;6.28;3.97;;;10.80;99.90;;;;;;5015580;28;20045;-80
2021/10/28 21:11:39;;;;;;;;;;;10.80;99.90;;;;;;5035087;28;20041;-82
2021/10/28 21:14:06;;;;;;;5.88;4.07;;;10.80;99.90;;;;;;5003211;28;20039;-84
2021/10/28 21:16:33;;;;;;;4.72;3.47;;;10.80;99.90;;;;;;5040663;28;20436;-80
2021/10/28 21:19:00;;;;;;;6.20;3.97;;;10.70;99.90;;;;;;5028579;28;20045;-81
2021/10/28 21:21:26;;;;;;;5.30;3.92;;;10.70;99.90;;;;;;5018272;28;20046;-82
2021/10/28 21:23:52;;;;;;;;;;;10.60;99.90;;;;;;5021129;28;20088;-81
2021/10/28 21:26:20;;;;;;;5.22;4.63;;;10.60;99.90;;;;;;5018792;28;20384;-79
2021/10/28 21:28:46;;;;;;;6.65;5.25;;;10.60;99.90;;;;;;5037002;28;20042;-84
2021/10/28 21:31:12;;;;;;;4.32;3.42;;;10.60;99.90;;;;;;5021847;28;20446;-80
2021/10/28 21:33:38;;;;;;;5.95;3.85;;;10.60;99.90;;;;;;5028127;28;20479;-82
2021/10/28 21:36:04;;;;;;;7.07;4.53;;;10.60;99.90;;;;;;5011820;28;20041;-83
2021/10/28 21:38:30;;;;;;;6.32;4.03;;;10.50;99.90;;;;;;5020068;28;20042;-83
2021/10/28 21:40:56;;;;;;;7.50;4.32;;;10.50;99.90;;;;;;4998412;28;20069;-83
2021/10/28 21:43:22;;;;;;;6.00;4.10;;;10.50;99.90;;;;;;4996975;28;20515;-82
2021/10/28 21:45:51;;;;;;;5.85;4.20;;;10.50;99.90;;;;;;5005329;28;20499;-80
2021/10/28 21:48:17;;;;;;;5.57;4.50;;;10.40;99.90;;;;;;5006840;28;20049;-83
2021/10/28 21:50:43;;;;;;;4.50;3.05;;;10.40;99.90;;;;;;5028437;28;20045;-79
2021/10/28 21:53:14;;;;;;;11.45;4.95;;;10.40;99.90;;;;;;5021082;28;20053;-83
2021/10/28 22:06:09;;;;;;;4.50;3.50;;;10.30;99.90;;;;;;5028736;28;20045;-79